createdAt,value
2023-04-09T00:00:30.828Z,6.37
2023-04-09T00:02:58.749Z,6.35
2023-04-09T00:05:26.658Z,6.28
2023-04-09T00:07:54.668Z,6.27
2023-04-09T00:10:22.621Z,6.16
2023-04-09T00:12:50.518Z,5.94
2023-04-09T00:15:30.085Z,5.96
2023-04-09T00:18:01.222Z,5.83
2023-04-09T00:20:29.097Z,6.03
2023-04-09T00:22:58.127Z,5.85
2023-04-09T00:25:25.989Z,6.01
2023-04-09T00:27:53.740Z,5.98
2023-04-09T00:30:21.925Z,5.97
2023-04-09T00:32:50.482Z,5.78
2023-04-09T00:35:19.809Z,5.74
2023-04-09T00:37:47.660Z,5.35
2023-04-09T00:40:15.511Z,5.36
2023-04-09T00:42:43.322Z,5.31
2023-04-09T00:45:11.845Z,5.67
2023-04-09T00:47:39.793Z,5.63
2023-04-09T00:50:08.508Z,5.35
2023-04-09T00:52:37.701Z,5.44
2023-04-09T00:55:07.106Z,5.23
2023-04-09T00:57:35.985Z,5.45
2023-04-09T01:00:04.681Z,5.28
2023-04-09T01:02:32.804Z,5.30
2023-04-09T01:05:00.780Z,5.18
2023-04-09T01:07:40.686Z,5.12
2023-04-09T01:10:18.051Z,5.12
2023-04-09T01:12:55.647Z,5.27
2023-04-09T01:15:27.737Z,5.08
2023-04-09T01:18:03.814Z,4.94
2023-04-09T01:20:36.661Z,5.00
2023-04-09T01:23:17.008Z,5.02
2023-04-09T01:25:50.810Z,5.14
2023-04-09T01:28:23.618Z,5.02
2023-04-09T01:30:58.521Z,5.01
2023-04-09T01:33:28.058Z,4.98
2023-04-09T01:35:58.225Z,4.78
2023-04-09T01:38:27.495Z,4.76
2023-04-09T01:40:56.601Z,4.64
2023-04-09T01:43:28.603Z,4.81
2023-04-09T01:45:56.778Z,4.34
2023-04-09T01:48:25.454Z,4.45
2023-04-09T01:50:53.518Z,4.62
2023-04-09T01:53:22.845Z,4.38
2023-04-09T01:55:50.719Z,4.49
2023-04-09T01:58:18.547Z,4.24
2023-04-09T02:00:49.560Z,4.01
2023-04-09T02:03:22.817Z,4.03
2023-04-09T02:05:56.451Z,4.32
2023-04-09T02:08:26.004Z,4.56
2023-04-09T02:10:59.066Z,4.46
2023-04-09T02:13:28.324Z,4.43
2023-04-09T02:16:00.851Z,4.30
2023-04-09T02:18:30.992Z,4.53
2023-04-09T02:20:59.847Z,4.51
2023-04-09T02:23:28.183Z,4.51
2023-04-09T02:25:56.175Z,4.43
2023-04-09T02:28:24.010Z,4.60
2023-04-09T02:30:52.992Z,4.48
2023-04-09T02:33:22.503Z,4.46
2023-04-09T02:35:50.372Z,4.56
2023-04-09T02:38:18.296Z,4.14
2023-04-09T02:40:46.190Z,4.12
2023-04-09T02:43:14.101Z,4.28
2023-04-09T02:45:41.937Z,4.26
2023-04-09T02:48:09.758Z,4.13
2023-04-09T02:50:38.988Z,3.93
2023-04-09T02:53:06.813Z,4.08
2023-04-09T02:55:34.710Z,3.92
2023-04-09T02:58:02.476Z,3.98
2023-04-09T03:00:30.293Z,3.93
2023-04-09T03:02:58.544Z,4.25
2023-04-09T03:05:26.485Z,4.09
2023-04-09T03:07:56.209Z,4.01
2023-04-09T03:10:24.036Z,4.03
2023-04-09T03:12:51.861Z,4.04
2023-04-09T03:15:19.745Z,4.14
2023-04-09T03:17:47.588Z,4.10
2023-04-09T03:20:15.440Z,4.12
2023-04-09T03:22:43.308Z,4.16
2023-04-09T03:25:23.556Z,4.16
2023-04-09T03:27:55.081Z,3.94
2023-04-09T03:30:41.385Z,3.96
2023-04-09T03:33:09.959Z,4.00
2023-04-09T03:35:48.621Z,4.04
2023-04-09T03:38:19.586Z,3.67
2023-04-09T03:40:48.808Z,3.89
2023-04-09T03:43:16.748Z,3.66
2023-04-09T03:45:50.092Z,3.69
2023-04-09T03:48:23.171Z,3.89
2023-04-09T03:50:53.489Z,3.78
2023-04-09T03:53:29.065Z,3.69
2023-04-09T03:56:04.396Z,3.83
2023-04-09T03:58:33.362Z,3.65
2023-04-09T04:01:01.703Z,3.67
2023-04-09T04:03:38.090Z,3.75
2023-04-09T04:06:34.581Z,3.89
2023-04-09T04:09:10.870Z,3.85
2023-04-09T04:11:51.057Z,3.56
2023-04-09T04:14:20.357Z,3.52
2023-04-09T04:16:53.568Z,3.68
2023-04-09T04:19:24.122Z,3.75
2023-04-09T04:21:52.965Z,3.76
2023-04-09T04:24:20.816Z,3.53
2023-04-09T04:26:49.208Z,3.42
2023-04-09T04:29:21.196Z,3.43
2023-04-09T04:31:57.577Z,3.49
2023-04-09T04:34:28.808Z,3.71
2023-04-09T04:37:02.968Z,3.58
2023-04-09T04:39:33.721Z,3.61
2023-04-09T04:42:06.005Z,3.50
2023-04-09T04:44:35.190Z,3.45
2023-04-09T04:47:13.607Z,3.44
2023-04-09T04:49:41.511Z,3.27
2023-04-09T04:52:10.157Z,3.44
2023-04-09T04:54:41.332Z,3.09
2023-04-09T04:57:10.224Z,3.40
2023-04-09T04:59:43.349Z,3.30
2023-04-09T05:02:13.667Z,3.34
2023-04-09T05:05:13.843Z,3.46
2023-04-09T05:07:48.517Z,3.66
2023-04-09T05:10:16.365Z,3.56
2023-04-09T05:12:44.796Z,3.30
2023-04-09T05:15:17.058Z,3.57
2023-04-09T05:17:44.969Z,3.43
2023-04-09T05:20:14.790Z,3.76
2023-04-09T05:23:02.585Z,3.74
2023-04-09T05:25:35.601Z,3.63
2023-04-09T05:28:04.514Z,3.91
2023-04-09T05:30:35.710Z,3.65
2023-04-09T05:33:06.173Z,3.82
2023-04-09T05:35:34.612Z,4.13
2023-04-09T05:38:02.549Z,4.02
2023-04-09T05:40:30.483Z,4.10
2023-04-09T05:42:58.445Z,3.95
2023-04-09T05:45:39.762Z,4.39
2023-04-09T05:48:08.430Z,4.49
2023-04-09T05:50:51.074Z,4.58
2023-04-09T05:53:22.998Z,4.66
2023-04-09T05:55:51.165Z,4.60
2023-04-09T05:58:21.825Z,4.56
2023-04-09T06:00:52.575Z,4.63
2023-04-09T06:03:21.037Z,4.77
2023-04-09T06:05:49.311Z,4.68
2023-04-09T06:08:17.258Z,5.37
2023-04-09T06:10:45.175Z,5.29
2023-04-09T06:13:12.955Z,5.57
2023-04-09T06:15:40.793Z,5.36
2023-04-09T06:18:10.013Z,5.80
2023-04-09T06:20:37.813Z,5.86
2023-04-09T06:23:06.181Z,6.03
2023-04-09T06:25:34.056Z,5.96
2023-04-09T06:28:01.965Z,5.99
2023-04-09T06:30:31.812Z,6.32
2023-04-09T06:32:59.672Z,6.62
2023-04-09T06:35:29.781Z,6.67
2023-04-09T06:37:57.614Z,6.87
2023-04-09T06:40:25.473Z,7.25
2023-04-09T06:42:53.349Z,6.83
2023-04-09T06:45:31.188Z,7.20
2023-04-09T06:47:59.297Z,7.24
2023-04-09T06:50:27.329Z,7.43
2023-04-09T06:52:57.072Z,7.56
2023-04-09T06:55:26.791Z,7.89
2023-04-09T06:57:54.743Z,8.02
2023-04-09T07:00:23.094Z,8.28
2023-04-09T07:02:51.317Z,8.53
2023-04-09T07:05:19.632Z,8.81
2023-04-09T07:07:47.519Z,8.96
2023-04-09T07:10:16.826Z,9.18
2023-04-09T07:12:44.645Z,9.12
2023-04-09T07:15:12.430Z,9.53
2023-04-09T07:17:40.261Z,9.59
2023-04-09T07:20:08.957Z,9.64
2023-04-09T07:22:36.816Z,9.62
2023-04-09T07:25:05.471Z,9.92
2023-04-09T07:27:34.577Z,10.11
2023-04-09T07:30:03.218Z,10.27
2023-04-09T07:32:31.141Z,10.34
2023-04-09T07:34:59.393Z,10.21
2023-04-09T07:37:27.445Z,10.38
2023-04-09T07:39:55.475Z,10.00
2023-04-09T07:42:23.210Z,10.69
2023-04-09T07:44:52.392Z,10.94
2023-04-09T07:47:20.327Z,10.71
2023-04-09T07:49:50.051Z,10.32
2023-04-09T07:52:17.889Z,11.05
2023-04-09T07:54:45.712Z,11.05
2023-04-09T07:57:14.041Z,10.99
2023-04-09T07:59:41.827Z,10.98
2023-04-09T08:02:14.345Z,11.44
2023-04-09T08:04:43.137Z,11.29
2023-04-09T08:07:11.499Z,11.71
2023-04-09T08:09:39.294Z,11.77
2023-04-09T08:12:07.115Z,11.97
2023-04-09T08:14:35.063Z,12.04
2023-04-09T08:17:02.881Z,11.81
2023-04-09T08:19:32.143Z,11.76
2023-04-09T08:22:00.022Z,11.86
2023-04-09T08:24:28.222Z,12.20
2023-04-09T08:26:56.631Z,12.16
2023-04-09T08:29:24.446Z,12.49
2023-04-09T08:31:52.221Z,12.82
2023-04-09T08:34:22.019Z,12.69
2023-04-09T08:36:51.285Z,12.96
2023-04-09T08:39:20.148Z,13.09
2023-04-09T08:41:48.587Z,13.10
2023-04-09T08:44:17.690Z,12.92
2023-04-09T08:46:45.708Z,12.47
2023-04-09T08:49:13.574Z,12.55
2023-04-09T08:51:46.902Z,13.39
2023-04-09T08:54:19.896Z,13.43
2023-04-09T08:56:47.914Z,13.22
2023-04-09T08:59:18.495Z,13.96
2023-04-09T09:01:47.957Z,13.86
2023-04-09T09:04:16.182Z,13.97
2023-04-09T09:06:44.512Z,14.11
2023-04-09T09:09:14.752Z,14.24
2023-04-09T09:11:45.698Z,14.17
2023-04-09T09:14:14.872Z,13.93
2023-04-09T09:16:44.339Z,14.17
2023-04-09T09:19:30.245Z,13.70
2023-04-09T09:21:59.417Z,14.16
2023-04-09T09:24:27.336Z,14.25
2023-04-09T09:26:57.422Z,14.68
2023-04-09T09:29:25.948Z,13.78
2023-04-09T09:31:55.633Z,13.92
2023-04-09T09:34:25.219Z,14.18
2023-04-09T09:36:53.038Z,13.68
2023-04-09T09:39:22.058Z,13.72
2023-04-09T09:42:07.568Z,13.68
2023-04-09T09:44:36.733Z,14.34
2023-04-09T09:47:05.531Z,14.23
2023-04-09T09:49:33.594Z,14.89
2023-04-09T09:52:03.913Z,15.13
2023-04-09T09:54:40.960Z,15.34
2023-04-09T09:57:10.193Z,15.14
2023-04-09T09:59:44.432Z,14.54
2023-04-09T10:02:19.445Z,15.39
2023-04-09T10:04:49.645Z,15.47
2023-04-09T10:07:19.388Z,14.92
2023-04-09T10:09:50.754Z,15.19
2023-04-09T10:12:23.637Z,15.52
2023-04-09T10:14:54.102Z,15.75
2023-04-09T10:17:22.057Z,15.45
2023-04-09T10:20:00.383Z,16.55
2023-04-09T10:22:32.756Z,16.74
2023-04-09T10:25:00.652Z,16.55
2023-04-09T10:27:28.409Z,15.95
2023-04-09T10:29:57.553Z,15.63
2023-04-09T10:32:28.004Z,15.16
2023-04-09T10:34:59.209Z,15.25
2023-04-09T10:37:28.596Z,16.23
2023-04-09T10:39:57.834Z,17.14
2023-04-09T10:42:31.811Z,17.51
2023-04-09T10:45:08.980Z,17.62
2023-04-09T10:47:37.945Z,17.28
2023-04-09T10:50:22.503Z,18.00
2023-04-09T10:52:54.586Z,16.64
2023-04-09T10:55:34.023Z,16.68
2023-04-09T10:58:01.921Z,16.91
2023-04-09T11:00:31.009Z,16.64
2023-04-09T11:03:20.207Z,17.44
2023-04-09T11:05:52.547Z,20.77
2023-04-09T11:08:22.044Z,19.33
2023-04-09T11:10:52.245Z,17.20
2023-04-09T11:13:21.823Z,16.21
2023-04-09T11:15:51.727Z,16.44
2023-04-09T11:18:24.782Z,17.19
2023-04-09T11:20:56.177Z,16.76
2023-04-09T11:23:25.257Z,17.73
2023-04-09T11:25:54.090Z,18.27
2023-04-09T11:28:22.181Z,19.91
2023-04-09T11:30:53.719Z,20.02
2023-04-09T11:33:21.606Z,18.51
2023-04-09T11:35:49.760Z,18.32
2023-04-09T11:38:17.833Z,18.33
2023-04-09T11:40:48.535Z,20.31
2023-04-09T11:43:17.704Z,23.43
2023-04-09T11:45:48.142Z,24.02
2023-04-09T11:48:19.168Z,23.40
2023-04-09T11:50:47.842Z,24.51
2023-04-09T11:53:20.408Z,27.00
2023-04-09T11:55:50.624Z,24.36
2023-04-09T11:58:18.604Z,22.50
2023-04-09T12:00:46.574Z,20.09
2023-04-09T12:03:16.462Z,18.31
2023-04-09T12:05:51.028Z,18.63
2023-04-09T12:08:24.813Z,20.32
2023-04-09T12:10:53.878Z,19.69
2023-04-09T12:13:22.109Z,19.36
2023-04-09T12:15:51.383Z,18.82
2023-04-09T12:18:19.226Z,20.80
2023-04-09T12:20:49.690Z,20.59
2023-04-09T12:23:17.872Z,18.80
2023-04-09T12:25:47.628Z,18.36
2023-04-09T12:28:18.287Z,18.56
2023-04-09T12:30:46.994Z,19.13
2023-04-09T12:33:14.787Z,19.50
2023-04-09T12:35:42.610Z,20.95
2023-04-09T12:38:11.905Z,18.89
2023-04-09T12:40:40.199Z,19.48
2023-04-09T12:43:07.943Z,19.07
2023-04-09T12:45:35.922Z,18.21
2023-04-09T12:48:03.762Z,18.57
2023-04-09T12:50:31.612Z,20.18
2023-04-09T12:52:59.357Z,22.14
2023-04-09T12:55:28.982Z,21.72
2023-04-09T12:57:56.762Z,19.46
2023-04-09T13:00:24.607Z,18.37
2023-04-09T13:02:52.829Z,17.57
2023-04-09T13:05:20.941Z,18.00
2023-04-09T13:07:48.712Z,18.88
2023-04-09T13:10:16.690Z,18.81
2023-04-09T13:12:45.890Z,18.11
2023-04-09T13:15:13.722Z,17.43
2023-04-09T13:17:41.533Z,18.65
2023-04-09T13:20:10.330Z,18.10
2023-04-09T13:22:38.348Z,18.57
2023-04-09T13:25:06.788Z,19.41
2023-04-09T13:27:34.671Z,19.51
2023-04-09T13:30:03.969Z,19.27
2023-04-09T13:32:31.881Z,19.87
2023-04-09T13:34:59.864Z,19.70
2023-04-09T13:37:27.789Z,20.22
2023-04-09T13:39:55.608Z,20.09
2023-04-09T13:42:23.354Z,20.17
2023-04-09T13:44:51.294Z,20.31
2023-04-09T13:47:21.073Z,22.13
2023-04-09T13:49:51.398Z,22.27
2023-04-09T13:52:19.189Z,19.87
2023-04-09T13:54:47.158Z,19.41
2023-04-09T13:57:15.074Z,19.10
2023-04-09T13:59:43.989Z,19.37
2023-04-09T14:02:12.020Z,19.23
2023-04-09T14:04:41.300Z,18.68
2023-04-09T14:07:09.168Z,18.95
2023-04-09T14:09:37.021Z,18.94
2023-04-09T14:12:05.013Z,18.51
2023-04-09T14:14:32.831Z,17.98
2023-04-09T14:17:00.577Z,18.39
2023-04-09T14:19:28.460Z,18.45
2023-04-09T14:21:57.690Z,18.69
2023-04-09T14:24:25.730Z,17.71
2023-04-09T14:26:53.785Z,17.86
2023-04-09T14:29:22.588Z,18.32
2023-04-09T14:31:51.700Z,18.17
2023-04-09T14:34:19.645Z,17.99
2023-04-09T14:36:47.805Z,18.09
2023-04-09T14:39:17.734Z,17.78
2023-04-09T14:41:45.631Z,18.21
2023-04-09T14:44:13.646Z,18.22
2023-04-09T14:46:41.546Z,18.42
2023-04-09T14:49:09.469Z,17.81
2023-04-09T14:51:37.295Z,17.55
2023-04-09T14:54:05.179Z,17.84
2023-04-09T14:56:36.093Z,18.35
2023-04-09T14:59:04.265Z,22.85
2023-04-09T15:01:33.142Z,23.49
2023-04-09T15:04:01.391Z,24.18
2023-04-09T15:06:31.355Z,24.93
2023-04-09T15:08:59.203Z,23.35
2023-04-09T15:11:27.894Z,21.74
2023-04-09T15:13:57.886Z,20.35
2023-04-09T15:16:29.238Z,20.60
2023-04-09T15:18:59.034Z,19.51
2023-04-09T15:21:27.179Z,20.23
2023-04-09T15:23:55.226Z,19.07
2023-04-09T15:26:23.112Z,18.78
2023-04-09T15:28:51.284Z,18.23
2023-04-09T15:31:21.132Z,17.91
2023-04-09T15:33:50.386Z,17.72
2023-04-09T15:36:18.203Z,17.75
2023-04-09T15:38:46.092Z,18.05
2023-04-09T15:41:13.851Z,17.45
2023-04-09T15:43:41.671Z,17.48
2023-04-09T15:46:10.605Z,16.77
2023-04-09T15:48:39.910Z,17.10
2023-04-09T15:51:08.047Z,18.10
2023-04-09T15:53:35.903Z,19.18
2023-04-09T15:56:04.214Z,20.04
2023-04-09T15:58:32.128Z,21.82
2023-04-09T16:01:00.034Z,22.85
2023-04-09T16:03:27.899Z,21.90
2023-04-09T16:05:57.047Z,21.84
2023-04-09T16:08:26.344Z,21.77
2023-04-09T16:10:54.116Z,20.38
2023-04-09T16:13:22.010Z,20.75
2023-04-09T16:15:51.028Z,19.72
2023-04-09T16:18:18.885Z,18.71
2023-04-09T16:20:47.095Z,19.48
2023-04-09T16:23:16.272Z,19.77
2023-04-09T16:25:44.100Z,19.79
2023-04-09T16:28:11.878Z,19.20
2023-04-09T16:30:39.630Z,19.06
2023-04-09T16:33:08.632Z,18.83
2023-04-09T16:35:38.857Z,19.23
2023-04-09T16:38:07.637Z,18.40
2023-04-09T16:40:36.799Z,17.87
2023-04-09T16:43:04.717Z,17.38
2023-04-09T16:45:32.806Z,18.08
2023-04-09T16:48:00.783Z,18.21
2023-04-09T16:50:28.744Z,18.75
2023-04-09T16:52:56.612Z,18.72
2023-04-09T16:55:24.502Z,19.03
2023-04-09T16:57:55.963Z,18.77
2023-04-09T17:00:23.987Z,17.54
2023-04-09T17:02:52.028Z,18.66
2023-04-09T17:05:20.301Z,19.14
2023-04-09T17:07:48.200Z,18.47
2023-04-09T17:10:16.412Z,18.99
2023-04-09T17:12:44.351Z,18.84
2023-04-09T17:15:13.858Z,18.60
2023-04-09T17:17:41.741Z,19.77
2023-04-09T17:20:10.488Z,20.44
2023-04-09T17:22:39.285Z,19.12
2023-04-09T17:25:08.684Z,17.84
2023-04-09T17:27:36.759Z,17.64
2023-04-09T17:30:04.984Z,16.70
2023-04-09T17:32:34.232Z,16.56
2023-04-09T17:35:03.606Z,16.21
2023-04-09T17:37:31.411Z,15.66
2023-04-09T17:39:59.212Z,15.44
2023-04-09T17:42:27.012Z,15.65
2023-04-09T17:44:54.741Z,14.75
2023-04-09T17:47:22.614Z,14.79
2023-04-09T17:49:51.788Z,14.37
2023-04-09T17:52:20.432Z,14.20
2023-04-09T17:54:50.565Z,13.90
2023-04-09T17:57:18.446Z,13.42
2023-04-09T17:59:46.231Z,13.80
2023-04-09T18:02:14.201Z,13.56
2023-04-09T18:04:42.284Z,13.38
2023-04-09T18:07:11.583Z,13.21
2023-04-09T18:09:40.510Z,13.21
2023-04-09T18:12:08.445Z,12.60
2023-04-09T18:14:36.276Z,13.02
2023-04-09T18:17:04.155Z,12.35
2023-04-09T18:19:32.163Z,12.20
2023-04-09T18:22:00.159Z,11.94
2023-04-09T18:24:30.222Z,12.40
2023-04-09T18:26:58.042Z,12.40
2023-04-09T18:29:27.468Z,12.42
2023-04-09T18:31:56.060Z,12.25
2023-04-09T18:34:24.294Z,12.21
2023-04-09T18:36:52.575Z,12.13
2023-04-09T18:39:21.012Z,11.81
2023-04-09T18:41:50.430Z,11.90
2023-04-09T18:44:18.174Z,11.81
2023-04-09T18:46:45.982Z,11.87
2023-04-09T18:49:13.774Z,11.60
2023-04-09T18:51:41.634Z,11.51
2023-04-09T18:54:09.509Z,11.59
2023-04-09T18:56:37.239Z,11.56
2023-04-09T18:59:06.438Z,11.36
2023-04-09T19:01:34.340Z,11.44
2023-04-09T19:04:02.360Z,11.43
2023-04-09T19:06:30.383Z,11.37
2023-04-09T19:08:58.972Z,11.23
2023-04-09T19:11:27.046Z,11.32
2023-04-09T19:13:55.084Z,11.17
2023-04-09T19:16:24.349Z,11.21
2023-04-09T19:18:52.398Z,11.15
2023-04-09T19:21:20.369Z,11.06
2023-04-09T19:23:48.116Z,10.94
2023-04-09T19:26:15.899Z,10.72
2023-04-09T19:28:43.641Z,10.42
2023-04-09T19:31:14.260Z,10.66
2023-04-09T19:33:43.572Z,10.65
2023-04-09T19:36:12.883Z,10.58
2023-04-09T19:38:40.922Z,10.47
2023-04-09T19:41:08.757Z,10.37
2023-04-09T19:43:38.681Z,10.25
2023-04-09T19:46:08.411Z,10.10
2023-04-09T19:48:36.543Z,9.99
2023-04-09T19:51:06.112Z,9.92
2023-04-09T19:53:36.239Z,9.77
2023-04-09T19:56:05.683Z,9.68
2023-04-09T19:58:33.655Z,9.67
2023-04-09T20:01:01.600Z,9.62
2023-04-09T20:03:29.479Z,9.61
2023-04-09T20:05:57.477Z,9.46
2023-04-09T20:08:27.372Z,9.48
2023-04-09T20:10:55.221Z,9.42
2023-04-09T20:13:23.345Z,9.59
2023-04-09T20:15:51.706Z,9.42
2023-04-09T20:18:19.643Z,9.37
2023-04-09T20:20:47.613Z,9.46
2023-04-09T20:23:15.504Z,9.53
2023-04-09T20:25:44.626Z,9.34
2023-04-09T20:28:12.508Z,9.31
2023-04-09T20:30:40.330Z,9.40
2023-04-09T20:33:08.119Z,9.29
2023-04-09T20:35:36.637Z,9.16
2023-04-09T20:38:04.663Z,9.09
2023-04-09T20:40:33.068Z,8.68
2023-04-09T20:43:02.397Z,8.80
2023-04-09T20:45:30.399Z,8.81
2023-04-09T20:47:58.321Z,8.44
2023-04-09T20:50:26.194Z,8.29
2023-04-09T20:52:54.003Z,8.58
2023-04-09T20:55:22.031Z,8.54
2023-04-09T20:57:50.132Z,8.59
2023-04-09T21:00:19.713Z,8.65
2023-04-09T21:02:47.564Z,8.54
2023-04-09T21:05:22.583Z,8.61
2023-04-09T21:07:51.517Z,8.58
2023-04-09T21:10:19.437Z,8.56
2023-04-09T21:12:47.177Z,8.36
2023-04-09T21:15:15.343Z,8.40
2023-04-09T21:17:44.602Z,8.37
2023-04-09T21:20:13.060Z,8.39
2023-04-09T21:22:41.029Z,8.28
2023-04-09T21:25:09.669Z,8.51
2023-04-09T21:27:37.520Z,8.51
2023-04-09T21:30:06.079Z,8.34
2023-04-09T21:32:33.946Z,8.19
2023-04-09T21:35:03.118Z,8.29
2023-04-09T21:37:32.978Z,8.28
2023-04-09T21:40:00.831Z,8.30
2023-04-09T21:42:31.417Z,8.37
2023-04-09T21:44:59.461Z,8.15
2023-04-09T21:47:27.609Z,8.27
2023-04-09T21:49:55.685Z,8.32
2023-04-09T21:52:25.164Z,8.13
2023-04-09T21:54:52.970Z,7.83
2023-04-09T21:57:20.835Z,7.81
2023-04-09T21:59:48.636Z,8.11
2023-04-09T22:02:16.665Z,8.20
2023-04-09T22:04:44.589Z,8.23
2023-04-09T22:07:13.008Z,8.30
2023-04-09T22:09:42.164Z,8.18
2023-04-09T22:12:09.953Z,7.84
2023-04-09T22:14:39.173Z,8.10
2023-04-09T22:17:08.788Z,8.24
2023-04-09T22:19:36.743Z,8.12
2023-04-09T22:22:04.565Z,7.89
2023-04-09T22:24:33.739Z,8.11
2023-04-09T22:27:02.870Z,8.09
2023-04-09T22:29:31.251Z,7.83
2023-04-09T22:31:59.065Z,7.80
2023-04-09T22:34:27.230Z,7.69
2023-04-09T22:36:55.034Z,7.69
2023-04-09T22:39:22.818Z,7.60
2023-04-09T22:41:50.649Z,7.65
2023-04-09T22:44:19.878Z,7.64
2023-04-09T22:46:47.731Z,7.60
2023-04-09T22:49:15.829Z,7.51
2023-04-09T22:51:43.664Z,7.47
2023-04-09T22:54:11.477Z,7.18
2023-04-09T22:56:39.666Z,6.79
2023-04-09T22:59:07.563Z,6.62
2023-04-09T23:01:36.826Z,6.61
2023-04-09T23:04:04.768Z,6.55
2023-04-09T23:06:32.756Z,6.42
2023-04-09T23:09:00.939Z,6.53
2023-04-09T23:11:28.915Z,6.70
2023-04-09T23:13:56.653Z,6.98
2023-04-09T23:16:24.506Z,7.08
2023-04-09T23:18:53.974Z,7.21
2023-04-09T23:21:22.069Z,7.28
2023-04-09T23:23:49.853Z,7.30
2023-04-09T23:26:17.592Z,7.28
2023-04-09T23:28:45.403Z,7.24
2023-04-09T23:31:13.229Z,7.20
2023-04-09T23:33:41.101Z,7.13
2023-04-09T23:36:10.872Z,7.08
2023-04-09T23:38:40.285Z,7.11
2023-04-09T23:41:08.249Z,6.99
2023-04-09T23:43:35.996Z,7.05
2023-04-09T23:46:03.784Z,6.92
2023-04-09T23:48:31.545Z,6.99
2023-04-09T23:50:59.324Z,6.79
2023-04-09T23:53:28.435Z,6.63
2023-04-09T23:55:56.187Z,6.82
2023-04-09T23:58:24.042Z,6.64
